Time,TemperatureF,DewpointF,PressureIn,WindDirection,WindDirectionDegrees,WindSpeedMPH,WindSpeedGustMPH,Humidity,HourlyPrecipIn,Conditions,Clouds,dailyrainin,SoftwareType,DateUTC
2013-03-17 00:00:00,39.3,29.6,29.69,North,359,0.0,3.0,68,0.00,,,0.00,Wunderground v.1.15,2013-03-17 06:00:00,
2013-03-17 00:10:00,39.2,29.5,29.68,North,359,0.0,3.0,68,0.00,,,0.00,Wunderground v.1.15,2013-03-17 06:10:00,
2013-03-17 00:15:00,38.9,29.2,29.68,North,359,0.0,3.0,68,0.00,,,0.00,Wunderground v.1.15,2013-03-17 06:15:00,
2013-03-17 00:20:00,38.8,29.1,29.68,North,359,0.0,3.0,68,0.00,,,0.00,Wunderground v.1.15,2013-03-17 06:20:00,
2013-03-17 00:25:00,38.8,29.5,29.68,North,359,0.0,3.0,69,0.00,,,0.00,Wunderground v.1.15,2013-03-17 06:25:00,
2013-03-17 00:35:00,38.6,29.3,29.66,North,359,0.0,3.0,69,0.00,,,0.00,Wunderground v.1.15,2013-03-17 06:35:00,
2013-03-17 00:45:00,38.5,29.2,29.66,North,359,0.0,3.0,69,0.00,,,0.00,Wunderground v.1.15,2013-03-17 06:45:00,
2013-03-17 00:55:00,38.2,28.9,29.66,North,359,0.0,3.0,69,0.00,,,0.00,Wunderground v.1.15,2013-03-17 06:55:00,
2013-03-17 01:10:00,37.6,28.3,29.66,North,359,0.0,3.0,69,0.00,,,0.00,Wunderground v.1.15,2013-03-17 07:10:00,
2013-03-17 01:15:00,37.3,28.1,29.66,North,359,0.0,3.0,69,0.00,,,0.00,Wunderground v.1.15,2013-03-17 07:15:00,
2013-03-17 01:25:00,36.9,27.7,29.65,North,359,0.0,3.0,69,0.00,,,0.00,Wunderground v.1.15,2013-03-17 07:25:00,
2013-03-17 08:10:00,40.6,24.3,29.51,East,93,0.0,3.0,52,0.00,,,0.00,Wunderground v.1.15,2013-03-17 14:10:00,
2013-03-17 08:20:00,42.2,24.4,29.51,South,171,0.0,3.0,49,0.00,,,0.00,Wunderground v.1.15,2013-03-17 14:20:00,
2013-03-17 08:25:00,42.9,24.0,29.51,South,171,0.0,3.0,47,0.00,,,0.00,Wunderground v.1.15,2013-03-17 14:25:00,
2013-03-17 08:30:00,43.6,24.2,29.51,SSW,192,0.0,3.0,46,0.00,,,0.00,Wunderground v.1.15,2013-03-17 14:30:00,
2013-03-17 08:40:00,44.3,24.3,29.50,SSW,192,0.0,3.0,45,0.00,,,0.00,Wunderground v.1.15,2013-03-17 14:40:00,
2013-03-17 08:50:00,45.5,24.3,29.51,SSW,192,0.0,3.0,43,0.00,,,0.00,Wunderground v.1.15,2013-03-17 14:50:00,
2013-03-17 08:55:00,46.1,24.3,29.51,SSW,192,0.0,3.0,42,0.00,,,0.00,Wunderground v.1.15,2013-03-17 14:55:00,
2013-03-17 09:00:00,46.7,23.6,29.51,SSW,192,0.0,3.0,40,0.00,,,0.00,Wunderground v.1.15,2013-03-17 15:00:00,
2013-03-17 09:10:00,47.4,23.7,29.50,SSW,192,0.0,3.0,39,0.00,,,0.00,Wunderground v.1.15,2013-03-17 15:10:00,
2013-03-17 09:15:00,47.7,24.5,29.50,SSW,192,0.0,3.0,40,0.00,,,0.00,Wunderground v.1.15,2013-03-17 15:15:00,
2013-03-17 09:20:00,48.2,24.4,29.47,SSW,192,0.0,3.0,39,0.00,,,0.00,Wunderground v.1.15,2013-03-17 15:20:00,
2013-03-17 09:30:00,48.9,23.7,29.47,SSW,200,0.0,3.0,37,0.00,,,0.00,Wunderground v.1.15,2013-03-17 15:30:00,
2013-03-17 09:35:00,49.4,24.2,29.48,South,188,0.0,3.0,37,0.00,,,0.00,Wunderground v.1.15,2013-03-17 15:35:00,
2013-03-17 09:45:00,50.2,22.9,29.48,South,188,0.0,3.0,34,0.00,,,0.00,Wunderground v.1.15,2013-03-17 15:45:00,
2013-03-17 09:50:00,50.5,21.7,29.47,SSE,167,0.0,3.0,32,0.00,,,0.00,Wunderground v.1.15,2013-03-17 15:50:00,
2013-03-17 10:00:00,51.1,23.0,29.47,ESE,114,0.0,3.0,33,0.00,,,0.00,Wunderground v.1.15,2013-03-17 16:00:00,
2013-03-17 10:10:00,52.2,20.9,29.46,SSE,160,0.0,3.0,29,0.00,,,0.00,Wunderground v.1.15,2013-03-17 16:10:00,
2013-03-17 10:20:00,52.8,20.5,29.45,South,171,0.0,3.0,28,0.00,,,0.00,Wunderground v.1.15,2013-03-17 16:20:00,
2013-03-17 10:30:00,53.1,20.8,29.45,SSW,193,0.0,3.0,28,0.00,,,0.00,Wunderground v.1.15,2013-03-17 16:30:00,
2013-03-17 10:40:00,53.9,21.5,29.46,SSW,195,0.0,3.0,28,0.00,,,0.00,Wunderground v.1.15,2013-03-17 16:40:00,
2013-03-17 10:50:00,55.6,22.1,29.45,NNE,16,0.0,3.0,27,0.00,,,0.00,Wunderground v.1.15,2013-03-17 16:50:00,
2013-03-17 10:55:00,56.2,19.8,29.45,South,188,0.0,3.0,24,0.00,,,0.00,Wunderground v.1.15,2013-03-17 16:55:00,
2013-03-17 11:10:00,56.0,19.7,29.43,SW,217,1.0,3.0,24,0.00,,,0.00,Wunderground v.1.15,2013-03-17 17:10:00,
2013-03-17 11:20:00,55.9,19.6,29.42,SW,217,1.0,3.0,24,0.00,,,0.00,Wunderground v.1.15,2013-03-17 17:20:00,
2013-03-17 11:25:00,55.7,20.4,29.42,SW,217,0.0,3.0,25,0.00,,,0.00,Wunderground v.1.15,2013-03-17 17:25:00,
2013-03-17 11:30:00,55.6,21.2,29.42,SSW,199,0.0,3.0,26,0.00,,,0.00,Wunderground v.1.15,2013-03-17 17:30:00,
2013-03-17 11:40:00,55.1,22.5,29.42,SSE,167,1.0,1.0,28,0.00,,,0.00,Wunderground v.1.15,2013-03-17 17:40:00,
2013-03-17 11:45:00,55.3,21.8,29.42,West,272,0.0,3.0,27,0.00,,,0.00,Wunderground v.1.15,2013-03-17 17:45:00,
2013-03-17 11:55:00,55.1,21.7,29.40,West,265,0.0,3.0,27,0.00,,,0.00,Wunderground v.1.15,2013-03-17 17:55:00,
2013-03-17 12:10:00,55.3,21.8,29.40,South,186,0.0,3.0,27,0.00,,,0.00,Wunderground v.1.15,2013-03-17 18:10:00,
2013-03-17 12:15:00,55.4,21.0,29.40,SSW,193,1.0,3.0,26,0.00,,,0.00,Wunderground v.1.15,2013-03-17 18:15:00,
2013-03-17 12:20:00,56.0,21.6,29.40,SSW,200,1.0,3.0,26,0.00,,,0.00,Wunderground v.1.15,2013-03-17 18:20:00,
2013-03-17 12:30:00,56.9,21.4,29.40,SSW,200,1.0,3.0,25,0.00,,,0.00,Wunderground v.1.15,2013-03-17 18:30:00,
2013-03-17 12:40:00,57.8,21.2,29.39,SE,138,0.0,3.0,24,0.00,,,0.00,Wunderground v.1.15,2013-03-17 18:40:00,
2013-03-17 12:50:00,58.4,20.7,29.36,South,191,0.0,3.0,23,0.00,,,0.00,Wunderground v.1.15,2013-03-17 18:50:00,
2013-03-17 15:10:00,59.0,9.8,29.35,SW,219,4.0,10.0,14,0.00,,,0.00,Wunderground v.1.15,2013-03-17 21:10:00,
2013-03-17 15:20:00,58.1,12.1,29.37,SSW,195,6.0,6.0,16,0.00,,,0.00,Wunderground v.1.15,2013-03-17 21:20:00,
2013-03-17 15:30:00,58.3,13.6,29.37,SSW,209,4.0,7.0,17,0.00,,,0.00,Wunderground v.1.15,2013-03-17 21:30:00,
2013-03-17 15:35:00,58.1,13.4,29.37,SSW,200,4.0,7.0,17,0.00,,,0.00,Wunderground v.1.15,2013-03-17 21:35:00,
2013-03-17 15:45:00,57.8,14.5,29.37,SSW,209,4.0,6.0,18,0.00,,,0.00,Wunderground v.1.15,2013-03-17 21:45:00,
2013-03-17 15:55:00,56.7,10.9,29.38,South,181,6.0,7.0,16,0.00,,,0.00,Wunderground v.1.15,2013-03-17 21:55:00,
2013-03-17 16:00:00,56.3,13.3,29.38,SW,220,5.0,5.0,18,0.00,,,0.00,Wunderground v.1.15,2013-03-17 22:00:00,
2013-03-17 16:10:00,56.5,12.1,29.38,South,191,5.0,5.0,17,0.00,,,0.00,Wunderground v.1.15,2013-03-17 22:10:00,
2013-03-17 16:20:00,56.0,13.0,29.40,South,176,6.0,6.0,18,0.00,,,0.00,Wunderground v.1.15,2013-03-17 22:20:00,
2013-03-17 16:30:00,55.4,13.8,29.40,South,176,6.0,6.0,19,0.00,,,0.00,Wunderground v.1.15,2013-03-17 22:30:00,
2013-03-17 16:35:00,55.6,13.9,29.40,SSW,199,6.0,6.0,19,0.00,,,0.00,Wunderground v.1.15,2013-03-17 22:35:00,
2013-03-17 16:45:00,55.3,16.0,29.40,SSW,209,5.0,6.0,21,0.00,,,0.00,Wunderground v.1.15,2013-03-17 22:45:00,
2013-03-17 16:55:00,55.1,16.9,29.41,SSW,203,4.0,7.0,22,0.00,,,0.00,Wunderground v.1.15,2013-03-17 22:55:00,
2013-03-17 17:10:00,54.7,17.6,29.41,SW,220,4.0,10.0,23,0.00,,,0.00,Wunderground v.1.15,2013-03-17 23:10:00,
2013-03-17 17:20:00,53.2,18.2,29.44,SW,215,4.0,5.0,25,0.00,,,0.00,Wunderground v.1.15,2013-03-17 23:20:00,
2013-03-17 17:30:00,52.9,18.9,29.44,SW,220,4.0,4.0,26,0.00,,,0.00,Wunderground v.1.15,2013-03-17 23:30:00,
2013-03-17 17:40:00,51.7,19.6,29.45,South,185,3.0,3.0,28,0.00,,,0.00,Wunderground v.1.15,2013-03-17 23:40:00,
2013-03-17 17:50:00,51.7,21.2,29.46,SSW,202,1.0,1.0,30,0.00,,,0.00,Wunderground v.1.15,2013-03-17 23:50:00,
2013-03-17 18:00:00,51.4,19.3,29.46,South,182,2.0,2.0,28,0.00,,,0.00,Wunderground v.1.15,2013-03-18 00:00:00,
2013-03-17 18:10:00,51.0,21.4,29.47,SSW,200,1.0,1.0,31,0.00,,,0.00,Wunderground v.1.15,2013-03-18 00:10:00,
2013-03-17 18:20:00,48.8,23.0,29.51,South,179,2.0,2.0,36,0.00,,,0.00,Wunderground v.1.15,2013-03-18 00:20:00,
2013-03-17 18:30:00,47.1,23.4,29.51,SW,220,0.0,3.0,39,0.00,,,0.00,Wunderground v.1.15,2013-03-18 00:30:00,
2013-03-17 18:40:00,46.5,23.4,29.51,SW,220,0.0,3.0,40,0.00,,,0.00,Wunderground v.1.15,2013-03-18 00:40:00,
2013-03-17 18:45:00,46.2,22.6,29.51,SW,220,0.0,3.0,39,0.00,,,0.00,Wunderground v.1.15,2013-03-18 00:45:00,
2013-03-17 18:55:00,45.8,20.3,29.53,SW,220,0.0,3.0,36,0.00,,,0.00,Wunderground v.1.15,2013-03-18 00:55:00,
2013-03-17 19:00:00,45.7,19.6,29.53,SW,220,0.0,3.0,35,0.00,,,0.00,Wunderground v.1.15,2013-03-18 01:00:00,
2013-03-17 19:20:00,44.6,19.9,29.54,SW,220,0.0,3.0,37,0.00,,,0.00,Wunderground v.1.15,2013-03-18 01:20:00,
2013-03-17 19:30:00,43.9,19.3,29.54,South,176,0.0,3.0,37,0.00,,,0.00,Wunderground v.1.15,2013-03-18 01:30:00,
2013-03-17 19:35:00,44.5,15.7,29.53,SE,145,0.0,3.0,31,0.00,,,0.00,Wunderground v.1.15,2013-03-18 01:35:00,
2013-03-17 19:45:00,45.2,16.3,29.53,SSW,196,0.0,3.0,31,0.00,,,0.00,Wunderground v.1.15,2013-03-18 01:45:00,
2013-03-17 19:55:00,45.4,18.6,29.54,SSW,202,0.0,3.0,34,0.00,,,0.00,Wunderground v.1.15,2013-03-18 01:55:00,
2013-03-17 21:00:00,41.1,21.3,29.55,South,182,0.0,3.0,45,0.00,,,0.00,Wunderground v.1.15,2013-03-18 03:00:00,
2013-03-17 21:10:00,41.1,20.8,29.58,South,182,0.0,3.0,44,0.00,,,0.00,Wunderground v.1.15,2013-03-18 03:10:00,
2013-03-17 21:15:00,41.1,20.8,29.58,South,182,0.0,3.0,44,0.00,,,0.00,Wunderground v.1.15,2013-03-18 03:15:00,
2013-03-17 21:20:00,40.9,20.1,29.58,South,182,0.0,3.0,43,0.00,,,0.00,Wunderground v.1.15,2013-03-18 03:20:00,
2013-03-17 21:30:00,40.6,19.8,29.58,South,185,0.0,3.0,43,0.00,,,0.00,Wunderground v.1.15,2013-03-18 03:30:00,
2013-03-17 21:35:00,40.3,20.1,29.55,South,185,0.0,3.0,44,0.00,,,0.00,Wunderground v.1.15,2013-03-18 03:35:00,
2013-03-17 21:40:00,40.3,20.1,29.55,SSW,205,0.0,3.0,44,0.00,,,0.00,Wunderground v.1.15,2013-03-18 03:40:00,
2013-03-17 21:50:00,40.2,17.8,29.59,SSW,200,0.0,3.0,40,0.00,,,0.00,Wunderground v.1.15,2013-03-18 03:50:00,
2013-03-17 21:55:00,40.2,17.2,29.59,SSW,195,0.0,3.0,39,0.00,,,0.00,Wunderground v.1.15,2013-03-18 03:55:00,
2013-03-17 22:00:00,40.2,16.6,29.59,West,272,0.0,3.0,38,0.00,,,0.00,Wunderground v.1.15,2013-03-18 04:00:00,
2013-03-17 22:10:00,40.1,15.9,29.60,SSW,196,0.0,3.0,37,0.00,,,0.00,Wunderground v.1.15,2013-03-18 04:10:00,
2013-03-17 22:15:00,39.9,15.1,29.60,South,184,0.0,3.0,36,0.00,,,0.00,Wunderground v.1.15,2013-03-18 04:15:00,
2013-03-17 22:20:00,39.9,15.1,29.61,South,179,1.0,3.0,36,0.00,,,0.00,Wunderground v.1.15,2013-03-18 04:20:00,
2013-03-17 22:25:00,39.8,15.0,29.61,SW,217,1.0,3.0,36,0.00,,,0.00,Wunderground v.1.15,2013-03-18 04:25:00,
2013-03-17 22:30:00,39.6,14.2,29.61,WSW,241,1.0,3.0,35,0.00,,,0.00,Wunderground v.1.15,2013-03-18 04:30:00,
2013-03-17 22:40:00,39.3,13.2,29.60,SSW,199,1.0,1.0,34,0.00,,,0.00,Wunderground v.1.15,2013-03-18 04:40:00,
2013-03-17 22:45:00,39.2,12.5,29.60,SW,223,1.0,7.0,33,0.00,,,0.00,Wunderground v.1.15,2013-03-18 04:45:00,
2013-03-17 22:55:00,38.9,11.5,29.61,SW,223,1.0,3.0,32,0.00,,,0.00,Wunderground v.1.15,2013-03-18 04:55:00,
2013-03-17 23:10:00,38.5,10.4,29.62,South,185,2.0,2.0,31,0.00,,,0.00,Wunderground v.1.15,2013-03-18 05:10:00,
2013-03-17 23:15:00,38.3,10.3,29.62,SSE,155,2.0,3.0,31,0.00,,,0.00,Wunderground v.1.15,2013-03-18 05:15:00,
2013-03-17 23:20:00,38.0,9.3,29.62,South,179,1.0,1.0,30,0.00,,,0.00,Wunderground v.1.15,2013-03-18 05:20:00,
2013-03-17 23:30:00,37.8,9.8,29.62,South,185,2.0,2.0,31,0.00,,,0.00,Wunderground v.1.15,2013-03-18 05:30:00,
2013-03-17 23:40:00,37.5,9.6,29.63,SSW,212,3.0,10.0,31,0.00,,,0.00,Wunderground v.1.15,2013-03-18 05:40:00,
2013-03-17 23:50:00,37.3,10.1,29.65,SSW,200,2.0,2.0,32,0.00,,,0.00,Wunderground v.1.15,2013-03-18 05:50:00,
2013-03-17 23:55:00,37.2,10.0,29.65,South,186,2.0,3.0,32,0.00,,,0.00,Wunderground v.1.15,2013-03-18 05:55:00,